This is the latest recevied weather packets stored in our database for station/object SP6PGH-13. If no packets are shown the sender has not sent any weather packets the latest 10 day(s).
| Time | Temp. | Humidity | Pressure | Rain* | Wind** | Luminosity | Snow |
|---|---|---|---|---|---|---|---|
| 1777652929 | 22.78° C | 34% | 1010.7 hPa | - | - | 97 W/m² | - |
| 1777652028 | 23.33° C | 32% | 1010.8 hPa | - | - | 134 W/m² | - |
| 1777651127 | 23.33° C | 30% | 1010.8 hPa | - | - | 170 W/m² | - |
| 1777650226 | 23.33° C | 31% | 1010.9 hPa | - | - | 208 W/m² | - |
| 1777649325 | 23.33° C | 30% | 1010.9 hPa | - | - | 251 W/m² | - |
| 1777648424 | 22.78° C | 32% | 1010.9 hPa | - | - | 290 W/m² | - |
| 1777647523 | 23.33° C | 31% | 1011.1 hPa | - | - | 336 W/m² | - |
| 1777646622 | 23.89° C | 28% | 1011.1 hPa | - | - | 371 W/m² | - |
| 1777645721 | 23.33° C | 30% | 1011.2 hPa | - | - | 421 W/m² | - |
| 1777644820 | 23.33° C | 30% | 1011.3 hPa | - | - | 456 W/m² | - |
| 1777643919 | 22.78° C | 30% | 1011.5 hPa | - | - | 110 W/m² | - |
| 1777643018 | 22.78° C | 30% | 1011.4 hPa | - | - | 516 W/m² | - |
| 1777642117 | 22.22° C | 32% | 1011.6 hPa | - | - | 557 W/m² | - |
| 1777641216 | 22.22° C | 31% | 1011.8 hPa | - | - | 586 W/m² | - |
| 1777640315 | 22.78° C | 32% | 1011.9 hPa | - | - | 616 W/m² | - |
| 1777639413 | 22.22° C | 31% | 1012 hPa | - | - | 644 W/m² | - |
| 1777638513 | 22.22° C | 33% | 1012.2 hPa | - | - | 668 W/m² | - |
| 1777637612 | 22.22° C | 31% | 1012.5 hPa | - | - | 675 W/m² | - |
| 1777636711 | 21.67° C | 33% | 1012.6 hPa | - | - | 696 W/m² | - |
| 1777635809 | 21.67° C | 32% | 1012.7 hPa | - | - | 703 W/m² | - |
| 1777634908 | 21.11° C | 33% | 1012.8 hPa | - | - | 713 W/m² | - |
| 1777634007 | 21.67° C | 33% | 1012.7 hPa | - | - | 722 W/m² | - |
| 1777633106 | 21.11° C | 33% | 1012.8 hPa | - | - | 734 W/m² | - |
| 1777632205 | 20.56° C | 33% | 1013 hPa | - | - | 728 W/m² | - |
| 1777631304 | 20.56° C | 33% | 1012.9 hPa | - | - | 728 W/m² | - |
* Rain since midnight (hover to see other rain measurements)
** Current wind speed in m/s (hover to see current wind gust speed)